sensor_id;sensor_type;location;lat;lon;timestamp;temperature;humidity
30186;DHT22;31152;49.190;8.122;2022-10-16T00:01:32;16.40;99.90
30186;DHT22;31152;49.190;8.122;2022-10-16T00:04:00;16.40;99.90
30186;DHT22;31152;49.190;8.122;2022-10-16T00:06:28;16.40;99.90
30186;DHT22;31152;49.190;8.122;2022-10-16T00:08:56;16.40;99.90
30186;DHT22;31152;49.190;8.122;2022-10-16T00:11:31;16.40;99.90
30186;DHT22;31152;49.190;8.122;2022-10-16T00:14:05;16.40;99.90
30186;DHT22;31152;49.190;8.122;2022-10-16T00:16:34;16.30;99.90
30186;DHT22;31152;49.190;8.122;2022-10-16T00:19:01;16.30;99.90
30186;DHT22;31152;49.190;8.122;2022-10-16T00:21:29;16.20;99.90
30186;DHT22;31152;49.190;8.122;2022-10-16T00:24:07;16.20;99.90
30186;DHT22;31152;49.190;8.122;2022-10-16T00:26:38;16.10;99.90
30186;DHT22;31152;49.190;8.122;2022-10-16T00:29:06;16.00;99.90
30186;DHT22;31152;49.190;8.122;2022-10-16T00:31:33;16.00;99.90
30186;DHT22;31152;49.190;8.122;2022-10-16T00:34:00;15.90;99.90
30186;DHT22;31152;49.190;8.122;2022-10-16T00:36:27;15.90;99.90
30186;DHT22;31152;49.190;8.122;2022-10-16T00:38:56;15.90;99.90
30186;DHT22;31152;49.190;8.122;2022-10-16T00:41:25;15.90;99.90
30186;DHT22;31152;49.190;8.122;2022-10-16T00:43:58;15.90;99.90
30186;DHT22;31152;49.190;8.122;2022-10-16T00:49:04;15.90;99.90
30186;DHT22;31152;49.190;8.122;2022-10-16T00:51:37;15.90;99.90
30186;DHT22;31152;49.190;8.122;2022-10-16T00:54:09;15.90;99.90
30186;DHT22;31152;49.190;8.122;2022-10-16T00:56:42;15.80;99.90
30186;DHT22;31152;49.190;8.122;2022-10-16T00:59:24;15.80;99.90
30186;DHT22;31152;49.190;8.122;2022-10-16T01:01:52;15.80;99.90
30186;DHT22;31152;49.190;8.122;2022-10-16T01:04:23;15.80;99.90
30186;DHT22;31152;49.190;8.122;2022-10-16T01:09:59;15.80;99.90
30186;DHT22;31152;49.190;8.122;2022-10-16T01:15:42;15.70;99.90
30186;DHT22;31152;49.190;8.122;2022-10-16T01:20:57;15.60;99.90
30186;DHT22;31152;49.190;8.122;2022-10-16T01:23:27;15.60;99.90
30186;DHT22;31152;49.190;8.122;2022-10-16T01:28:57;15.60;99.90
30186;DHT22;31152;49.190;8.122;2022-10-16T01:31:29;15.60;99.90
30186;DHT22;31152;49.190;8.122;2022-10-16T01:36:51;15.60;99.90
30186;DHT22;31152;49.190;8.122;2022-10-16T01:39:22;15.60;99.90
30186;DHT22;31152;49.190;8.122;2022-10-16T01:42:15;15.60;99.90
30186;DHT22;31152;49.190;8.122;2022-10-16T01:44:43;15.60;99.90
30186;DHT22;31152;49.190;8.122;2022-10-16T01:47:13;15.60;99.90
30186;DHT22;31152;49.190;8.122;2022-10-16T01:49:43;15.60;99.90
30186;DHT22;31152;49.190;8.122;2022-10-16T01:52:14;15.60;99.90
30186;DHT22;31152;49.190;8.122;2022-10-16T01:54:43;15.60;99.90
30186;DHT22;31152;49.190;8.122;2022-10-16T01:57:13;15.60;99.90
30186;DHT22;31152;49.190;8.122;2022-10-16T01:59:44;15.60;99.90
30186;DHT22;31152;49.190;8.122;2022-10-16T02:02:13;15.60;99.90
30186;DHT22;31152;49.190;8.122;2022-10-16T02:04:49;15.60;99.90
30186;DHT22;31152;49.190;8.122;2022-10-16T02:07:17;15.60;99.90
30186;DHT22;31152;49.190;8.122;2022-10-16T02:09:47;15.60;99.90
30186;DHT22;31152;49.190;8.122;2022-10-16T02:12:24;15.60;99.90
30186;DHT22;31152;49.190;8.122;2022-10-16T02:14:52;15.60;99.90
30186;DHT22;31152;49.190;8.122;2022-10-16T02:17:20;15.60;99.90
30186;DHT22;31152;49.190;8.122;2022-10-16T02:19:48;15.60;99.90
30186;DHT22;31152;49.190;8.122;2022-10-16T02:22:32;15.60;99.90
30186;DHT22;31152;49.190;8.122;2022-10-16T02:25:03;15.60;99.90
30186;DHT22;31152;49.190;8.122;2022-10-16T02:30:31;15.60;99.90
30186;DHT22;31152;49.190;8.122;2022-10-16T02:33:00;15.60;99.90
30186;DHT22;31152;49.190;8.122;2022-10-16T02:35:28;15.60;99.90
30186;DHT22;31152;49.190;8.122;2022-10-16T02:37:58;15.60;99.90
30186;DHT22;31152;49.190;8.122;2022-10-16T02:40:26;15.60;99.90
30186;DHT22;31152;49.190;8.122;2022-10-16T02:42:54;15.70;99.90
30186;DHT22;31152;49.190;8.122;2022-10-16T02:45:22;15.60;99.90
30186;DHT22;31152;49.190;8.122;2022-10-16T02:47:49;15.60;99.90
30186;DHT22;31152;49.190;8.122;2022-10-16T02:50:16;15.50;99.90
30186;DHT22;31152;49.190;8.122;2022-10-16T02:52:43;15.50;99.90
30186;DHT22;31152;49.190;8.122;2022-10-16T02:55:12;15.50;99.90
30186;DHT22;31152;49.190;8.122;2022-10-16T02:57:38;15.50;99.90
30186;DHT22;31152;49.190;8.122;2022-10-16T03:00:08;15.50;99.90
30186;DHT22;31152;49.190;8.122;2022-10-16T03:02:35;15.50;99.90
30186;DHT22;31152;49.190;8.122;2022-10-16T03:05:02;15.50;99.90
30186;DHT22;31152;49.190;8.122;2022-10-16T03:07:29;15.50;99.90
30186;DHT22;31152;49.190;8.122;2022-10-16T03:09:55;15.50;99.90
30186;DHT22;31152;49.190;8.122;2022-10-16T03:12:22;15.50;99.90
30186;DHT22;31152;49.190;8.122;2022-10-16T03:14:49;15.50;99.90
30186;DHT22;31152;49.190;8.122;2022-10-16T03:17:15;15.50;99.90
30186;DHT22;31152;49.190;8.122;2022-10-16T03:19:43;15.60;99.90
30186;DHT22;31152;49.190;8.122;2022-10-16T03:22:10;15.60;99.90
30186;DHT22;31152;49.190;8.122;2022-10-16T03:24:37;15.60;99.90
30186;DHT22;31152;49.190;8.122;2022-10-16T03:27:06;15.60;99.90
30186;DHT22;31152;49.190;8.122;2022-10-16T03:29:32;15.60;99.90
30186;DHT22;31152;49.190;8.122;2022-10-16T03:31:59;15.60;99.90
30186;DHT22;31152;49.190;8.122;2022-10-16T03:34:26;15.60;99.90
30186;DHT22;31152;49.190;8.122;2022-10-16T03:36:53;15.60;99.90
30186;DHT22;31152;49.190;8.122;2022-10-16T03:39:20;15.70;99.90
30186;DHT22;31152;49.190;8.122;2022-10-16T03:41:46;15.70;99.90
30186;DHT22;31152;49.190;8.122;2022-10-16T03:44:13;15.70;99.90
30186;DHT22;31152;49.190;8.122;2022-10-16T03:46:40;15.70;99.90
30186;DHT22;31152;49.190;8.122;2022-10-16T03:49:07;15.70;99.90
30186;DHT22;31152;49.190;8.122;2022-10-16T03:51:35;15.70;99.90
30186;DHT22;31152;49.190;8.122;2022-10-16T03:54:02;15.70;99.90
30186;DHT22;31152;49.190;8.122;2022-10-16T03:56:31;15.70;99.90
30186;DHT22;31152;49.190;8.122;2022-10-16T03:58:58;15.70;99.90
30186;DHT22;31152;49.190;8.122;2022-10-16T04:01:25;15.60;99.90
30186;DHT22;31152;49.190;8.122;2022-10-16T04:03:54;15.60;99.90
30186;DHT22;31152;49.190;8.122;2022-10-16T04:06:20;15.60;99.90
30186;DHT22;31152;49.190;8.122;2022-10-16T04:08:47;15.70;99.90
30186;DHT22;31152;49.190;8.122;2022-10-16T04:11:14;15.70;99.90
30186;DHT22;31152;49.190;8.122;2022-10-16T04:13:40;15.60;99.90
30186;DHT22;31152;49.190;8.122;2022-10-16T04:16:07;15.70;99.90
30186;DHT22;31152;49.190;8.122;2022-10-16T04:18:34;15.70;99.90
30186;DHT22;31152;49.190;8.122;2022-10-16T04:21:05;15.60;99.90
30186;DHT22;31152;49.190;8.122;2022-10-16T04:23:33;15.70;99.90
30186;DHT22;31152;49.190;8.122;2022-10-16T04:26:00;15.70;99.90
30186;DHT22;31152;49.190;8.122;2022-10-16T04:28:29;15.70;99.90
30186;DHT22;31152;49.190;8.122;2022-10-16T04:30:56;15.70;99.90
30186;DHT22;31152;49.190;8.122;2022-10-16T04:33:25;15.70;99.90
30186;DHT22;31152;49.190;8.122;2022-10-16T04:35:59;15.70;99.90
30186;DHT22;31152;49.190;8.122;2022-10-16T04:38:26;15.70;99.90
30186;DHT22;31152;49.190;8.122;2022-10-16T04:40:52;15.60;99.90
30186;DHT22;31152;49.190;8.122;2022-10-16T04:43:20;15.70;99.90
30186;DHT22;31152;49.190;8.122;2022-10-16T04:45:47;15.60;99.90
30186;DHT22;31152;49.190;8.122;2022-10-16T04:48:13;15.60;99.90
30186;DHT22;31152;49.190;8.122;2022-10-16T04:50:41;15.60;99.90
30186;DHT22;31152;49.190;8.122;2022-10-16T04:53:08;15.60;99.90
30186;DHT22;31152;49.190;8.122;2022-10-16T04:55:34;15.60;99.90
30186;DHT22;31152;49.190;8.122;2022-10-16T04:58:01;15.60;99.90
30186;DHT22;31152;49.190;8.122;2022-10-16T05:00:28;15.60;99.90
30186;DHT22;31152;49.190;8.122;2022-10-16T05:02:55;15.60;99.90
30186;DHT22;31152;49.190;8.122;2022-10-16T05:05:21;15.60;99.90
30186;DHT22;31152;49.190;8.122;2022-10-16T05:07:49;15.50;99.90
30186;DHT22;31152;49.190;8.122;2022-10-16T05:10:16;15.50;99.90
30186;DHT22;31152;49.190;8.122;2022-10-16T05:12:45;15.50;99.90
30186;DHT22;31152;49.190;8.122;2022-10-16T05:15:12;15.50;99.90
30186;DHT22;31152;49.190;8.122;2022-10-16T05:17:39;15.50;99.90
30186;DHT22;31152;49.190;8.122;2022-10-16T05:20:10;15.50;99.90
30186;DHT22;31152;49.190;8.122;2022-10-16T05:22:37;15.40;99.90
30186;DHT22;31152;49.190;8.122;2022-10-16T05:25:04;15.40;99.90
30186;DHT22;31152;49.190;8.122;2022-10-16T05:27:31;15.50;99.90
30186;DHT22;31152;49.190;8.122;2022-10-16T05:29:58;15.50;99.90
30186;DHT22;31152;49.190;8.122;2022-10-16T05:32:24;15.40;99.90
30186;DHT22;31152;49.190;8.122;2022-10-16T05:34:51;15.40;99.90
30186;DHT22;31152;49.190;8.122;2022-10-16T05:37:18;15.40;99.90
30186;DHT22;31152;49.190;8.122;2022-10-16T05:39:45;15.50;99.90
30186;DHT22;31152;49.190;8.122;2022-10-16T05:42:11;15.50;99.90
30186;DHT22;31152;49.190;8.122;2022-10-16T05:44:38;15.50;99.90
30186;DHT22;31152;49.190;8.122;2022-10-16T05:47:07;15.50;99.90
30186;DHT22;31152;49.190;8.122;2022-10-16T05:49:34;15.50;99.90
30186;DHT22;31152;49.190;8.122;2022-10-16T05:52:08;15.50;99.90
30186;DHT22;31152;49.190;8.122;2022-10-16T05:54:37;15.50;99.90
30186;DHT22;31152;49.190;8.122;2022-10-16T05:57:06;15.50;99.90
30186;DHT22;31152;49.190;8.122;2022-10-16T05:59:32;15.50;99.90
30186;DHT22;31152;49.190;8.122;2022-10-16T06:01:59;15.50;99.90
30186;DHT22;31152;49.190;8.122;2022-10-16T06:04:26;15.50;99.90
30186;DHT22;31152;49.190;8.122;2022-10-16T06:06:53;15.50;99.90
30186;DHT22;31152;49.190;8.122;2022-10-16T06:09:19;15.50;99.90
30186;DHT22;31152;49.190;8.122;2022-10-16T06:11:46;15.50;99.90
30186;DHT22;31152;49.190;8.122;2022-10-16T06:14:13;15.50;99.90
30186;DHT22;31152;49.190;8.122;2022-10-16T06:16:42;15.50;99.90
30186;DHT22;31152;49.190;8.122;2022-10-16T06:19:11;15.60;99.90
30186;DHT22;31152;49.190;8.122;2022-10-16T06:21:38;15.60;99.90
30186;DHT22;31152;49.190;8.122;2022-10-16T06:24:07;15.50;99.90
30186;DHT22;31152;49.190;8.122;2022-10-16T06:26:34;15.60;99.90
30186;DHT22;31152;49.190;8.122;2022-10-16T06:29:01;15.60;99.90
30186;DHT22;31152;49.190;8.122;2022-10-16T06:31:28;15.60;99.90
30186;DHT22;31152;49.190;8.122;2022-10-16T06:33:58;15.60;99.90
30186;DHT22;31152;49.190;8.122;2022-10-16T06:36:25;15.60;99.90
30186;DHT22;31152;49.190;8.122;2022-10-16T06:38:52;15.60;99.90
30186;DHT22;31152;49.190;8.122;2022-10-16T06:41:21;15.70;99.90
30186;DHT22;31152;49.190;8.122;2022-10-16T06:43:48;15.70;99.90
30186;DHT22;31152;49.190;8.122;2022-10-16T06:46:17;15.70;99.90
30186;DHT22;31152;49.190;8.122;2022-10-16T06:48:44;15.70;99.90
30186;DHT22;31152;49.190;8.122;2022-10-16T06:51:22;15.70;99.90
30186;DHT22;31152;49.190;8.122;2022-10-16T06:53:51;15.70;99.90
30186;DHT22;31152;49.190;8.122;2022-10-16T06:56:35;15.70;99.90
30186;DHT22;31152;49.190;8.122;2022-10-16T06:59:02;15.70;99.90
30186;DHT22;31152;49.190;8.122;2022-10-16T07:01:29;15.70;99.90
30186;DHT22;31152;49.190;8.122;2022-10-16T07:03:56;15.70;99.90
30186;DHT22;31152;49.190;8.122;2022-10-16T07:06:25;15.80;99.90
30186;DHT22;31152;49.190;8.122;2022-10-16T07:08:53;15.70;99.90
30186;DHT22;31152;49.190;8.122;2022-10-16T07:11:21;15.80;99.90
30186;DHT22;31152;49.190;8.122;2022-10-16T07:13:52;15.80;99.90
30186;DHT22;31152;49.190;8.122;2022-10-16T07:16:26;15.80;99.90
30186;DHT22;31152;49.190;8.122;2022-10-16T07:18:55;15.80;99.90
30186;DHT22;31152;49.190;8.122;2022-10-16T07:21:31;15.90;99.90
30186;DHT22;31152;49.190;8.122;2022-10-16T07:24:01;15.90;99.90
30186;DHT22;31152;49.190;8.122;2022-10-16T07:26:30;15.90;99.90
30186;DHT22;31152;49.190;8.122;2022-10-16T07:28:57;16.00;99.90
30186;DHT22;31152;49.190;8.122;2022-10-16T07:31:27;16.00;99.90
30186;DHT22;31152;49.190;8.122;2022-10-16T07:33:54;16.10;99.90
30186;DHT22;31152;49.190;8.122;2022-10-16T07:36:23;16.10;99.90
30186;DHT22;31152;49.190;8.122;2022-10-16T07:38:50;16.20;99.90
30186;DHT22;31152;49.190;8.122;2022-10-16T07:41:22;16.20;99.90
30186;DHT22;31152;49.190;8.122;2022-10-16T07:43:51;16.20;99.90
30186;DHT22;31152;49.190;8.122;2022-10-16T07:46:20;16.30;99.90
30186;DHT22;31152;49.190;8.122;2022-10-16T07:48:48;16.20;99.90
30186;DHT22;31152;49.190;8.122;2022-10-16T07:51:17;16.30;99.90
30186;DHT22;31152;49.190;8.122;2022-10-16T07:53:44;16.30;99.90
30186;DHT22;31152;49.190;8.122;2022-10-16T07:56:11;16.40;99.90
30186;DHT22;31152;49.190;8.122;2022-10-16T07:58:40;16.40;99.90
30186;DHT22;31152;49.190;8.122;2022-10-16T08:01:09;16.50;99.90
30186;DHT22;31152;49.190;8.122;2022-10-16T08:03:37;16.50;99.90
30186;DHT22;31152;49.190;8.122;2022-10-16T08:06:07;16.50;99.90
30186;DHT22;31152;49.190;8.122;2022-10-16T08:08:34;16.60;99.90
30186;DHT22;31152;49.190;8.122;2022-10-16T08:11:01;16.60;99.90
30186;DHT22;31152;49.190;8.122;2022-10-16T08:13:30;16.60;99.90
30186;DHT22;31152;49.190;8.122;2022-10-16T08:15:57;16.70;99.90
30186;DHT22;31152;49.190;8.122;2022-10-16T08:18:26;16.70;99.90
30186;DHT22;31152;49.190;8.122;2022-10-16T08:20:57;16.70;99.90
30186;DHT22;31152;49.190;8.122;2022-10-16T08:23:24;16.90;99.90
30186;DHT22;31152;49.190;8.122;2022-10-16T08:25:53;17.00;99.90
30186;DHT22;31152;49.190;8.122;2022-10-16T08:28:20;17.20;99.90
30186;DHT22;31152;49.190;8.122;2022-10-16T08:30:47;17.40;99.90
30186;DHT22;31152;49.190;8.122;2022-10-16T08:33:14;17.60;99.90
30186;DHT22;31152;49.190;8.122;2022-10-16T08:35:41;17.60;99.90
30186;DHT22;31152;49.190;8.122;2022-10-16T08:38:10;17.60;99.90
30186;DHT22;31152;49.190;8.122;2022-10-16T08:40:37;17.70;99.90
30186;DHT22;31152;49.190;8.122;2022-10-16T08:47:05;17.50;99.90
30186;DHT22;31152;49.190;8.122;2022-10-16T08:49:16;17.50;99.90
30186;DHT22;31152;49.190;8.122;2022-10-16T08:51:44;17.50;99.90
30186;DHT22;31152;49.190;8.122;2022-10-16T08:56:48;17.40;99.90
30186;DHT22;31152;49.190;8.122;2022-10-16T08:59:16;17.50;99.90
30186;DHT22;31152;49.190;8.122;2022-10-16T09:01:49;17.60;99.90
30186;DHT22;31152;49.190;8.122;2022-10-16T09:06:47;17.70;99.90
30186;DHT22;31152;49.190;8.122;2022-10-16T09:20:16;18.90;99.90
30186;DHT22;31152;49.190;8.122;2022-10-16T09:22:44;19.40;99.90
30186;DHT22;31152;49.190;8.122;2022-10-16T09:25:21;19.80;99.90
30186;DHT22;31152;49.190;8.122;2022-10-16T09:27:52;20.30;99.90
30186;DHT22;31152;49.190;8.122;2022-10-16T09:30:22;20.80;99.90
30186;DHT22;31152;49.190;8.122;2022-10-16T09:32:52;21.30;99.90
30186;DHT22;31152;49.190;8.122;2022-10-16T09:37:57;21.80;99.90
30186;DHT22;31152;49.190;8.122;2022-10-16T09:40:33;21.90;99.90
30186;DHT22;31152;49.190;8.122;2022-10-16T09:46:31;22.10;99.90
30186;DHT22;31152;49.190;8.122;2022-10-16T09:48:58;22.20;99.90
30186;DHT22;31152;49.190;8.122;2022-10-16T09:51:30;22.40;99.90
30186;DHT22;31152;49.190;8.122;2022-10-16T09:54:15;22.50;99.90
30186;DHT22;31152;49.190;8.122;2022-10-16T09:56:44;23.00;99.90
30186;DHT22;31152;49.190;8.122;2022-10-16T09:59:20;23.70;99.90
30186;DHT22;31152;49.190;8.122;2022-10-16T10:01:52;23.90;99.90
30186;DHT22;31152;49.190;8.122;2022-10-16T10:04:20;24.20;99.90
30186;DHT22;31152;49.190;8.122;2022-10-16T10:06:49;24.40;99.90
30186;DHT22;31152;49.190;8.122;2022-10-16T10:19:29;27.20;99.90
30186;DHT22;31152;49.190;8.122;2022-10-16T10:21:58;27.30;99.90
30186;DHT22;31152;49.190;8.122;2022-10-16T10:24:25;27.70;99.90
30186;DHT22;31152;49.190;8.122;2022-10-16T10:27:02;27.70;99.60
30186;DHT22;31152;49.190;8.122;2022-10-16T10:29:37;27.80;99.50
30186;DHT22;31152;49.190;8.122;2022-10-16T10:32:27;27.80;98.70
30186;DHT22;31152;49.190;8.122;2022-10-16T10:43:08;28.20;97.60
30186;DHT22;31152;49.190;8.122;2022-10-16T10:45:46;28.00;97.00
30186;DHT22;31152;49.190;8.122;2022-10-16T10:51:08;26.90;98.50
30186;DHT22;31152;49.190;8.122;2022-10-16T11:08:17;24.60;99.90
30186;DHT22;31152;49.190;8.122;2022-10-16T11:11:07;24.10;99.90
30186;DHT22;31152;49.190;8.122;2022-10-16T11:16:30;23.30;99.90
30186;DHT22;31152;49.190;8.122;2022-10-16T11:21:36;22.70;99.90
30186;DHT22;31152;49.190;8.122;2022-10-16T11:24:15;22.50;99.90
30186;DHT22;31152;49.190;8.122;2022-10-16T11:26:43;22.40;99.90
30186;DHT22;31152;49.190;8.122;2022-10-16T11:29:24;22.20;99.90
30186;DHT22;31152;49.190;8.122;2022-10-16T11:32:06;22.00;99.90
30186;DHT22;31152;49.190;8.122;2022-10-16T11:34:45;21.90;99.90
30186;DHT22;31152;49.190;8.122;2022-10-16T11:37:19;21.90;99.90
30186;DHT22;31152;49.190;8.122;2022-10-16T11:39:47;21.70;99.90
30186;DHT22;31152;49.190;8.122;2022-10-16T11:42:25;21.80;99.90
30186;DHT22;31152;49.190;8.122;2022-10-16T11:47:48;21.90;99.90
30186;DHT22;31152;49.190;8.122;2022-10-16T11:50:36;21.80;99.90
30186;DHT22;31152;49.190;8.122;2022-10-16T11:56:05;21.80;99.90
30186;DHT22;31152;49.190;8.122;2022-10-16T12:01:31;21.80;99.90
30186;DHT22;31152;49.190;8.122;2022-10-16T12:04:14;21.90;99.90
30186;DHT22;31152;49.190;8.122;2022-10-16T12:06:55;21.90;99.90
30186;DHT22;31152;49.190;8.122;2022-10-16T12:09:32;22.10;99.90
30186;DHT22;31152;49.190;8.122;2022-10-16T12:11:59;22.20;99.90
30186;DHT22;31152;49.190;8.122;2022-10-16T12:17:27;22.40;99.90
30186;DHT22;31152;49.190;8.122;2022-10-16T12:20:18;22.40;99.90
30186;DHT22;31152;49.190;8.122;2022-10-16T12:22:50;22.20;99.90
30186;DHT22;31152;49.190;8.122;2022-10-16T12:25:24;22.10;99.90
30186;DHT22;31152;49.190;8.122;2022-10-16T12:30:25;21.90;99.90
30186;DHT22;31152;49.190;8.122;2022-10-16T12:32:55;21.80;99.90
30186;DHT22;31152;49.190;8.122;2022-10-16T12:35:28;21.70;99.90
30186;DHT22;31152;49.190;8.122;2022-10-16T12:38:17;21.50;99.90
30186;DHT22;31152;49.190;8.122;2022-10-16T12:40:46;21.50;99.90
30186;DHT22;31152;49.190;8.122;2022-10-16T12:43:24;21.40;99.90
30186;DHT22;31152;49.190;8.122;2022-10-16T12:48:39;21.30;99.90
30186;DHT22;31152;49.190;8.122;2022-10-16T12:59:57;21.00;99.90
30186;DHT22;31152;49.190;8.122;2022-10-16T13:02:55;21.00;99.90
30186;DHT22;31152;49.190;8.122;2022-10-16T13:14:09;20.70;99.90
30186;DHT22;31152;49.190;8.122;2022-10-16T13:19:51;20.60;99.90
30186;DHT22;31152;49.190;8.122;2022-10-16T13:22:54;20.60;99.90
30186;DHT22;31152;49.190;8.122;2022-10-16T13:28:12;20.50;99.90
30186;DHT22;31152;49.190;8.122;2022-10-16T13:30:42;20.50;99.90
30186;DHT22;31152;49.190;8.122;2022-10-16T13:33:16;20.50;99.90
30186;DHT22;31152;49.190;8.122;2022-10-16T13:35:55;20.40;99.90
30186;DHT22;31152;49.190;8.122;2022-10-16T13:38:24;20.50;99.90
30186;DHT22;31152;49.190;8.122;2022-10-16T13:41:00;20.50;99.90
30186;DHT22;31152;49.190;8.122;2022-10-16T13:43:31;20.50;99.90
30186;DHT22;31152;49.190;8.122;2022-10-16T13:46:15;20.50;99.90
30186;DHT22;31152;49.190;8.122;2022-10-16T13:48:43;20.50;99.90
30186;DHT22;31152;49.190;8.122;2022-10-16T13:51:15;20.40;99.90
30186;DHT22;31152;49.190;8.122;2022-10-16T13:53:45;20.40;99.90
30186;DHT22;31152;49.190;8.122;2022-10-16T13:56:16;20.30;99.90
30186;DHT22;31152;49.190;8.122;2022-10-16T13:58:43;20.30;99.90
30186;DHT22;31152;49.190;8.122;2022-10-16T14:03:41;20.40;99.90
30186;DHT22;31152;49.190;8.122;2022-10-16T14:06:13;20.40;99.90
30186;DHT22;31152;49.190;8.122;2022-10-16T14:08:42;20.40;99.90
30186;DHT22;31152;49.190;8.122;2022-10-16T14:11:10;20.40;99.90
30186;DHT22;31152;49.190;8.122;2022-10-16T14:13:46;20.40;99.90
30186;DHT22;31152;49.190;8.122;2022-10-16T14:16:28;20.40;99.90
30186;DHT22;31152;49.190;8.122;2022-10-16T14:19:00;20.60;99.90
30186;DHT22;31152;49.190;8.122;2022-10-16T14:21:28;20.70;99.90
30186;DHT22;31152;49.190;8.122;2022-10-16T14:23:55;20.90;99.90
30186;DHT22;31152;49.190;8.122;2022-10-16T14:26:27;21.10;99.90
30186;DHT22;31152;49.190;8.122;2022-10-16T14:29:12;21.30;99.90
30186;DHT22;31152;49.190;8.122;2022-10-16T14:31:42;21.80;99.90
30186;DHT22;31152;49.190;8.122;2022-10-16T14:34:30;22.30;99.90
30186;DHT22;31152;49.190;8.122;2022-10-16T14:37:01;22.70;99.90
30186;DHT22;31152;49.190;8.122;2022-10-16T14:39:39;22.80;99.90
30186;DHT22;31152;49.190;8.122;2022-10-16T14:42:21;23.10;99.90
30186;DHT22;31152;49.190;8.122;2022-10-16T14:44:51;23.20;99.90
30186;DHT22;31152;49.190;8.122;2022-10-16T14:47:21;23.20;99.90
30186;DHT22;31152;49.190;8.122;2022-10-16T14:49:52;23.20;99.90
30186;DHT22;31152;49.190;8.122;2022-10-16T14:52:22;23.30;99.90
30186;DHT22;31152;49.190;8.122;2022-10-16T14:54:49;23.40;99.90
30186;DHT22;31152;49.190;8.122;2022-10-16T14:57:18;23.20;99.90
30186;DHT22;31152;49.190;8.122;2022-10-16T14:59:46;23.20;99.90
30186;DHT22;31152;49.190;8.122;2022-10-16T15:02:34;23.00;99.90
30186;DHT22;31152;49.190;8.122;2022-10-16T15:05:21;22.90;99.90
30186;DHT22;31152;49.190;8.122;2022-10-16T15:07:48;22.70;99.90
30186;DHT22;31152;49.190;8.122;2022-10-16T15:10:18;22.50;99.90
30186;DHT22;31152;49.190;8.122;2022-10-16T15:12:46;22.30;99.90
30186;DHT22;31152;49.190;8.122;2022-10-16T15:15:35;22.30;99.90
30186;DHT22;31152;49.190;8.122;2022-10-16T15:18:03;22.10;99.90
30186;DHT22;31152;49.190;8.122;2022-10-16T15:20:35;22.10;99.90
30186;DHT22;31152;49.190;8.122;2022-10-16T15:23:21;22.00;99.90
30186;DHT22;31152;49.190;8.122;2022-10-16T15:25:53;21.90;99.90
30186;DHT22;31152;49.190;8.122;2022-10-16T15:28:23;21.90;99.90
30186;DHT22;31152;49.190;8.122;2022-10-16T15:30:55;22.00;99.90
30186;DHT22;31152;49.190;8.122;2022-10-16T15:33:26;22.30;99.90
30186;DHT22;31152;49.190;8.122;2022-10-16T15:36:06;22.80;99.90
30186;DHT22;31152;49.190;8.122;2022-10-16T15:38:33;23.20;99.90
30186;DHT22;31152;49.190;8.122;2022-10-16T15:40:59;23.60;99.90
30186;DHT22;31152;49.190;8.122;2022-10-16T15:43:26;24.00;99.90
30186;DHT22;31152;49.190;8.122;2022-10-16T15:46:05;24.40;99.90
30186;DHT22;31152;49.190;8.122;2022-10-16T15:48:33;25.10;99.90
30186;DHT22;31152;49.190;8.122;2022-10-16T15:51:00;25.70;99.90
30186;DHT22;31152;49.190;8.122;2022-10-16T15:53:30;26.10;99.90
30186;DHT22;31152;49.190;8.122;2022-10-16T15:55:57;26.70;99.90
30186;DHT22;31152;49.190;8.122;2022-10-16T15:58:23;26.80;99.90
30186;DHT22;31152;49.190;8.122;2022-10-16T16:00:58;26.70;99.90
30186;DHT22;31152;49.190;8.122;2022-10-16T16:03:27;26.80;99.90
30186;DHT22;31152;49.190;8.122;2022-10-16T16:05:54;26.40;99.90
30186;DHT22;31152;49.190;8.122;2022-10-16T16:08:21;25.90;99.90
30186;DHT22;31152;49.190;8.122;2022-10-16T16:11:06;25.40;99.90
30186;DHT22;31152;49.190;8.122;2022-10-16T16:13:33;24.60;99.90
30186;DHT22;31152;49.190;8.122;2022-10-16T16:16:00;24.00;99.90
30186;DHT22;31152;49.190;8.122;2022-10-16T16:18:27;23.60;99.90
30186;DHT22;31152;49.190;8.122;2022-10-16T16:20:57;23.20;99.90
30186;DHT22;31152;49.190;8.122;2022-10-16T16:23:24;22.90;99.90
30186;DHT22;31152;49.190;8.122;2022-10-16T16:26:26;22.60;99.90
30186;DHT22;31152;49.190;8.122;2022-10-16T16:28:53;22.30;99.90
30186;DHT22;31152;49.190;8.122;2022-10-16T16:31:24;22.10;99.90
30186;DHT22;31152;49.190;8.122;2022-10-16T16:33:51;21.80;99.90
30186;DHT22;31152;49.190;8.122;2022-10-16T16:36:17;21.60;99.90
30186;DHT22;31152;49.190;8.122;2022-10-16T16:38:45;21.40;99.90
30186;DHT22;31152;49.190;8.122;2022-10-16T16:41:23;21.20;99.90
30186;DHT22;31152;49.190;8.122;2022-10-16T16:43:52;21.00;99.90
30186;DHT22;31152;49.190;8.122;2022-10-16T16:46:21;20.80;99.90
30186;DHT22;31152;49.190;8.122;2022-10-16T16:48:51;20.60;99.90
30186;DHT22;31152;49.190;8.122;2022-10-16T16:51:19;20.50;99.90
30186;DHT22;31152;49.190;8.122;2022-10-16T16:53:49;20.30;99.90
30186;DHT22;31152;49.190;8.122;2022-10-16T16:56:19;20.20;99.90
30186;DHT22;31152;49.190;8.122;2022-10-16T16:58:48;20.00;99.90
30186;DHT22;31152;49.190;8.122;2022-10-16T17:01:15;19.90;99.90
30186;DHT22;31152;49.190;8.122;2022-10-16T17:03:49;19.70;99.90
30186;DHT22;31152;49.190;8.122;2022-10-16T17:06:20;19.60;99.90
30186;DHT22;31152;49.190;8.122;2022-10-16T17:08:48;19.50;99.90
30186;DHT22;31152;49.190;8.122;2022-10-16T17:11:18;19.40;99.90
30186;DHT22;31152;49.190;8.122;2022-10-16T17:13:46;19.30;99.90
30186;DHT22;31152;49.190;8.122;2022-10-16T17:16:22;19.10;99.90
30186;DHT22;31152;49.190;8.122;2022-10-16T17:18:49;19.00;99.90
30186;DHT22;31152;49.190;8.122;2022-10-16T17:21:16;18.90;99.90
30186;DHT22;31152;49.190;8.122;2022-10-16T17:23:43;18.80;99.90
30186;DHT22;31152;49.190;8.122;2022-10-16T17:26:14;18.70;99.90
30186;DHT22;31152;49.190;8.122;2022-10-16T17:28:42;18.60;99.90
30186;DHT22;31152;49.190;8.122;2022-10-16T17:31:10;18.50;99.90
30186;DHT22;31152;49.190;8.122;2022-10-16T17:33:37;18.40;99.90
30186;DHT22;31152;49.190;8.122;2022-10-16T17:36:05;18.30;99.90
30186;DHT22;31152;49.190;8.122;2022-10-16T17:38:32;18.20;99.90
30186;DHT22;31152;49.190;8.122;2022-10-16T17:41:10;18.00;99.90
30186;DHT22;31152;49.190;8.122;2022-10-16T17:43:38;17.90;99.90
30186;DHT22;31152;49.190;8.122;2022-10-16T17:46:08;17.90;99.90
30186;DHT22;31152;49.190;8.122;2022-10-16T17:48:43;17.90;99.90
30186;DHT22;31152;49.190;8.122;2022-10-16T17:51:16;17.80;99.90
30186;DHT22;31152;49.190;8.122;2022-10-16T17:53:44;17.80;99.90
30186;DHT22;31152;49.190;8.122;2022-10-16T17:56:13;17.70;99.90
30186;DHT22;31152;49.190;8.122;2022-10-16T17:58:40;17.70;99.90
30186;DHT22;31152;49.190;8.122;2022-10-16T18:01:12;17.60;99.90